createdAt,value
2023-02-14T00:02:03.386Z,18.70
2023-02-14T00:07:08.831Z,18.30
2023-02-14T00:12:13.694Z,18.27
2023-02-14T00:17:18.852Z,16.80
2023-02-14T00:22:22.788Z,18.55
2023-02-14T00:27:27.263Z,17.70
2023-02-14T00:32:31.768Z,15.77
2023-02-14T00:37:37.885Z,28.27
2023-02-14T00:42:43.318Z,18.83
2023-02-14T00:47:47.558Z,28.92
2023-02-14T00:52:51.104Z,25.63
2023-02-14T00:57:55.195Z,25.00
2023-02-14T01:02:58.679Z,18.67
2023-02-14T01:08:02.471Z,28.63
2023-02-14T01:13:08.398Z,26.33
2023-02-14T01:18:13.444Z,20.63
2023-02-14T01:23:19.771Z,22.10
2023-02-14T01:28:27.267Z,18.45
2023-02-14T01:33:31.184Z,20.08
2023-02-14T01:38:36.680Z,18.48
2023-02-14T01:44:16.413Z,19.80
2023-02-14T01:49:36.888Z,22.23
2023-02-14T01:54:46.494Z,16.67
2023-02-14T02:00:18.191Z,15.98
2023-02-14T02:05:25.274Z,25.40
2023-02-14T02:10:29.903Z,27.13
2023-02-14T02:15:50.512Z,34.47
2023-02-14T02:21:03.115Z,27.15
2023-02-14T02:26:32.477Z,29.08
2023-02-14T02:31:43.760Z,35.08
2023-02-14T02:37:39.197Z,24.95
2023-02-14T02:43:14.968Z,25.50
2023-02-14T02:48:24.450Z,32.17
2023-02-14T02:53:46.044Z,29.70
2023-02-14T02:59:02.164Z,38.38
2023-02-14T03:04:29.364Z,35.75
2023-02-14T03:09:33.077Z,25.90
2023-02-14T03:14:47.137Z,27.98
2023-02-14T03:20:29.586Z,35.67
2023-02-14T03:25:53.220Z,33.40
2023-02-14T03:31:11.479Z,29.48
2023-02-14T03:36:49.033Z,22.38
2023-02-14T03:42:06.277Z,24.15
2023-02-14T03:47:15.272Z,20.55
2023-02-14T03:52:21.170Z,20.38
2023-02-14T03:57:41.141Z,19.75
2023-02-14T04:02:50.662Z,21.83
2023-02-14T04:07:57.582Z,21.42
2023-02-14T04:13:01.404Z,20.38
2023-02-14T04:18:25.037Z,22.83
2023-02-14T04:23:29.416Z,21.75
2023-02-14T04:28:34.714Z,21.42
2023-02-14T04:33:39.774Z,36.58
2023-02-14T04:38:44.707Z,32.60
2023-02-14T04:43:49.093Z,40.40
2023-02-14T04:48:54.467Z,27.70
2023-02-14T04:53:59.975Z,31.75
2023-02-14T04:59:04.946Z,24.45
2023-02-14T05:04:09.800Z,24.73
2023-02-14T05:09:14.606Z,23.05
2023-02-14T05:14:18.910Z,21.80
2023-02-14T05:19:24.956Z,24.50
2023-02-14T05:24:29.760Z,22.10
2023-02-14T05:29:34.262Z,29.60
2023-02-14T05:34:38.258Z,24.80
2023-02-14T05:39:42.732Z,22.35
2023-02-14T05:44:49.535Z,24.98
2023-02-14T05:49:54.265Z,33.08
2023-02-14T05:54:58.838Z,25.25
2023-02-14T06:00:07.287Z,20.48
2023-02-14T06:05:19.371Z,22.02
2023-02-14T06:10:25.921Z,22.27
2023-02-14T06:15:30.274Z,36.83
2023-02-14T06:20:34.673Z,35.00
2023-02-14T06:25:38.801Z,36.90
2023-02-14T06:30:43.067Z,42.08
2023-02-14T06:35:48.640Z,33.33
2023-02-14T06:40:53.290Z,24.65
2023-02-14T06:45:58.372Z,32.80
2023-02-14T06:51:03.315Z,41.55
2023-02-14T06:56:08.806Z,31.38
2023-02-14T07:01:12.738Z,28.38
2023-02-14T07:06:17.990Z,27.38
2023-02-14T07:11:23.093Z,27.52
2023-02-14T07:16:28.516Z,47.10
2023-02-14T07:21:32.408Z,43.88
2023-02-14T07:26:37.410Z,45.80
2023-02-14T07:31:46.795Z,34.67
2023-02-14T07:36:56.636Z,54.60
2023-02-14T07:42:01.581Z,41.28
2023-02-14T07:47:10.060Z,46.90
2023-02-14T07:52:15.472Z,39.83
2023-02-14T07:57:19.770Z,38.45
2023-02-14T08:02:24.935Z,41.50
2023-02-14T08:07:30.640Z,30.83
2023-02-14T08:12:54.438Z,34.88
2023-02-14T08:17:59.558Z,29.40
2023-02-14T08:23:04.268Z,32.45
2023-02-14T08:28:08.940Z,36.80
2023-02-14T08:33:13.289Z,32.15
2023-02-14T08:38:20.792Z,33.55
2023-02-14T08:43:26.315Z,28.35
2023-02-14T08:48:31.321Z,23.60
2023-02-14T08:53:35.956Z,21.27
2023-02-14T08:58:40.393Z,21.98
2023-02-14T09:03:45.452Z,20.90
2023-02-14T09:08:50.040Z,21.00
2023-02-14T09:13:54.469Z,22.15
2023-02-14T09:18:59.512Z,20.25
2023-02-14T09:24:04.236Z,22.05
2023-02-14T09:29:08.850Z,21.40
2023-02-14T09:34:13.813Z,21.25
2023-02-14T09:39:19.034Z,23.63
2023-02-14T09:44:51.308Z,23.38
2023-02-14T09:49:56.239Z,21.52
2023-02-14T09:55:03.203Z,24.05
2023-02-14T10:00:31.222Z,22.50
2023-02-14T10:05:45.056Z,22.25
2023-02-14T10:11:01.702Z,19.02
2023-02-14T10:16:26.843Z,22.05
2023-02-14T10:21:49.672Z,19.95
2023-02-14T10:27:01.670Z,22.73
2023-02-14T10:32:15.515Z,20.88
2023-02-14T10:37:51.954Z,21.50
2023-02-14T10:43:10.829Z,20.30
2023-02-14T10:48:48.417Z,18.88
2023-02-14T10:54:33.790Z,17.67
2023-02-14T11:00:00.481Z,16.45
2023-02-14T11:05:08.397Z,16.33
2023-02-14T11:10:16.342Z,15.50
2023-02-14T11:15:22.880Z,16.05
2023-02-14T11:20:30.716Z,14.10
2023-02-14T11:25:37.207Z,14.60
2023-02-14T11:30:46.207Z,15.65
2023-02-14T11:35:53.977Z,15.77
2023-02-14T11:41:00.021Z,17.25
2023-02-14T11:46:16.289Z,16.17
2023-02-14T11:51:28.991Z,15.65
2023-02-14T11:57:07.687Z,15.10
2023-02-14T12:02:27.007Z,17.75
2023-02-14T12:07:38.443Z,16.00
2023-02-14T12:13:04.684Z,18.90
2023-02-14T12:18:30.067Z,22.63
2023-02-14T12:23:46.393Z,15.77
2023-02-14T12:29:12.531Z,17.52
2023-02-14T12:34:21.708Z,14.38
2023-02-14T12:40:09.917Z,18.25
2023-02-14T12:45:48.998Z,16.90
2023-02-14T12:51:05.995Z,16.95
2023-02-14T12:56:21.690Z,17.70
2023-02-14T13:01:43.414Z,16.98
2023-02-14T13:07:45.033Z,15.43
2023-02-14T13:13:11.588Z,19.88
2023-02-14T13:18:36.055Z,17.45
2023-02-14T13:23:46.836Z,21.35
2023-02-14T13:29:06.852Z,15.02
2023-02-14T13:34:32.714Z,15.77
2023-02-14T13:39:43.406Z,13.70
2023-02-14T13:50:32.707Z,17.15
2023-02-14T13:55:43.556Z,17.20
2023-02-14T14:00:50.467Z,17.70
2023-02-14T14:06:11.990Z,15.05
2023-02-14T14:11:22.853Z,12.50
2023-02-14T14:16:37.692Z,12.10
2023-02-14T14:22:00.952Z,16.60
2023-02-14T14:27:14.684Z,15.43
2023-02-14T14:32:19.698Z,15.80
2023-02-14T14:37:26.929Z,15.52
2023-02-14T14:42:36.916Z,17.17
2023-02-14T14:47:46.261Z,20.98
2023-02-14T14:52:54.753Z,18.20
2023-02-14T14:58:05.779Z,17.23
2023-02-14T15:03:13.396Z,19.67
2023-02-14T15:08:32.720Z,19.73
2023-02-14T15:13:50.242Z,14.25
2023-02-14T15:19:12.208Z,14.82
2023-02-14T15:24:17.812Z,19.30
2023-02-14T15:29:23.450Z,19.05
2023-02-14T15:34:55.592Z,19.80
2023-02-14T15:40:00.474Z,17.17
2023-02-14T15:45:28.261Z,18.52
2023-02-14T15:50:36.224Z,16.00
2023-02-14T15:55:40.358Z,14.55
2023-02-14T16:00:45.590Z,26.13
2023-02-14T16:05:51.456Z,18.52
2023-02-14T16:11:10.450Z,20.45
2023-02-14T16:16:16.231Z,18.70
2023-02-14T16:21:31.863Z,13.70
2023-02-14T16:26:39.696Z,14.30
2023-02-14T16:32:14.138Z,13.88
2023-02-14T16:37:30.151Z,16.33
2023-02-14T16:42:37.745Z,17.27
2023-02-14T16:47:42.490Z,17.20
2023-02-14T16:52:51.823Z,17.15
2023-02-14T16:57:56.494Z,17.02
2023-02-14T17:03:06.395Z,17.92
2023-02-14T17:08:13.490Z,20.13
2023-02-14T17:13:25.534Z,17.35
2023-02-14T17:23:36.823Z,18.02
2023-02-14T17:28:41.058Z,17.35
2023-02-14T17:33:45.935Z,18.77
2023-02-14T17:38:50.704Z,17.02
2023-02-14T17:43:56.286Z,27.77
2023-02-14T17:49:04.878Z,31.77
2023-02-14T17:54:13.903Z,24.88
2023-02-14T17:59:19.502Z,20.73
2023-02-14T18:04:23.813Z,16.75
2023-02-14T18:09:28.485Z,17.05
2023-02-14T18:14:34.095Z,20.60
2023-02-14T18:19:39.587Z,20.35
2023-02-14T18:24:43.593Z,24.27
2023-02-14T18:29:48.595Z,23.58
2023-02-14T18:34:55.810Z,28.40
2023-02-14T18:40:01.607Z,24.50
2023-02-14T18:45:07.152Z,24.10
2023-02-14T18:50:11.900Z,18.10
2023-02-14T18:55:17.350Z,36.50
2023-02-14T19:00:25.250Z,26.48
